createdAt,value
2023-04-16T00:00:31.562Z,92476.00
2023-04-16T00:01:31.544Z,92474.00
2023-04-16T00:02:31.658Z,92478.00
2023-04-16T00:03:31.638Z,92476.00
2023-04-16T00:04:31.491Z,92478.00
2023-04-16T00:05:31.480Z,92474.00
2023-04-16T00:06:31.505Z,92474.00
2023-04-16T00:07:31.370Z,92472.00
2023-04-16T00:08:31.644Z,92476.00
2023-04-16T00:09:32.135Z,92476.00
2023-04-16T00:10:31.313Z,92476.00
2023-04-16T00:11:31.287Z,92476.00
2023-04-16T00:12:31.266Z,92474.00
2023-04-16T00:13:31.243Z,92478.00
2023-04-16T00:14:31.213Z,92476.00
2023-04-16T00:15:31.240Z,92476.00
2023-04-16T00:16:31.216Z,92474.00
2023-04-16T00:17:31.177Z,92474.00
2023-04-16T00:18:31.108Z,92472.00
2023-04-16T00:19:31.075Z,92476.00
2023-04-16T00:20:31.049Z,92474.00
2023-04-16T00:21:31.170Z,92474.00
2023-04-16T00:22:31.634Z,92474.00
2023-04-16T00:23:31.020Z,92478.00
2023-04-16T00:24:30.948Z,92476.00
2023-04-16T00:25:30.935Z,92474.00
2023-04-16T00:26:30.907Z,92472.00
2023-04-16T00:27:30.889Z,92474.00
2023-04-16T00:28:31.138Z,92472.00
2023-04-16T00:29:30.835Z,92476.00
2023-04-16T00:30:30.798Z,92474.00
2023-04-16T00:31:30.939Z,92474.00
2023-04-16T00:32:30.807Z,92476.00
2023-04-16T00:33:30.730Z,92474.00
2023-04-16T00:34:30.710Z,92476.00
2023-04-16T00:35:30.689Z,92474.00
2023-04-16T00:36:30.659Z,92478.00
2023-04-16T00:37:30.633Z,92478.00
2023-04-16T00:38:30.601Z,92476.00
2023-04-16T00:39:30.574Z,92478.00
2023-04-16T00:40:30.557Z,92476.00
2023-04-16T00:41:30.519Z,92474.00
2023-04-16T00:42:30.500Z,92474.00
2023-04-16T00:43:30.477Z,92474.00
2023-04-16T00:44:30.441Z,92474.00
2023-04-16T00:45:30.420Z,92472.00
2023-04-16T00:46:30.480Z,92474.00
2023-04-16T00:47:30.415Z,92474.00
2023-04-16T00:48:30.642Z,92474.00
2023-04-16T00:49:30.311Z,92474.00
2023-04-16T00:50:30.280Z,92478.00
2023-04-16T00:51:30.263Z,92474.00
2023-04-16T00:52:30.230Z,92476.00
2023-04-16T00:53:30.201Z,92476.00
2023-04-16T00:54:30.236Z,92478.00
2023-04-16T00:55:30.149Z,92478.00
2023-04-16T00:56:30.136Z,92476.00
2023-04-16T00:57:30.104Z,92478.00
2023-04-16T00:58:30.080Z,92480.00
2023-04-16T00:59:30.055Z,92478.00
2023-04-16T01:00:30.021Z,92480.00
2023-04-16T01:01:30.058Z,92480.00
2023-04-16T01:02:30.132Z,92482.00
2023-04-16T01:03:30.168Z,92480.00
2023-04-16T01:04:29.962Z,92480.00
2023-04-16T01:05:29.893Z,92480.00
2023-04-16T01:06:29.867Z,92480.00
2023-04-16T01:07:29.844Z,92478.00
2023-04-16T01:08:29.821Z,92478.00
2023-04-16T01:09:29.787Z,92480.00
2023-04-16T01:10:29.756Z,92478.00
2023-04-16T01:11:29.736Z,92478.00
2023-04-16T01:12:30.140Z,92478.00
2023-04-16T01:13:29.684Z,92480.00
2023-04-16T01:14:29.661Z,92478.00
2023-04-16T01:15:29.634Z,92480.00
2023-04-16T01:16:29.716Z,92476.00
2023-04-16T01:17:29.687Z,92478.00
2023-04-16T01:18:29.542Z,92476.00
2023-04-16T01:19:29.508Z,92478.00
2023-04-16T01:20:29.483Z,92476.00
2023-04-16T01:21:29.456Z,92476.00
2023-04-16T01:22:29.425Z,92472.00
2023-04-16T01:23:29.383Z,92474.00
2023-04-16T01:24:29.357Z,92474.00
2023-04-16T01:25:29.324Z,92476.00
2023-04-16T01:26:29.310Z,92478.00
2023-04-16T01:27:29.289Z,92478.00
2023-04-16T01:28:29.262Z,92476.00
2023-04-16T01:29:29.220Z,92474.00
2023-04-16T01:30:29.188Z,92474.00
2023-04-16T01:31:29.289Z,92472.00
2023-04-16T01:32:29.174Z,92470.00
2023-04-16T01:33:29.111Z,92470.00
2023-04-16T01:34:29.076Z,92472.00
2023-04-16T01:35:29.048Z,92470.00
2023-04-16T01:36:29.021Z,92474.00
2023-04-16T01:37:29.003Z,92474.00
2023-04-16T01:38:29.007Z,92472.00
2023-04-16T01:39:28.992Z,92474.00
2023-04-16T01:40:28.926Z,92476.00
2023-04-16T01:41:28.885Z,92474.00
2023-04-16T01:42:28.867Z,92474.00
2023-04-16T01:43:28.930Z,92476.00
2023-04-16T01:44:28.802Z,92476.00
2023-04-16T01:45:28.783Z,92478.00
2023-04-16T01:46:28.806Z,92474.00
2023-04-16T01:47:28.747Z,92476.00
2023-04-16T01:48:28.786Z,92476.00
2023-04-16T01:49:28.755Z,92478.00
2023-04-16T01:50:28.670Z,92478.00
2023-04-16T01:51:28.636Z,92480.00
2023-04-16T01:52:28.618Z,92478.00
2023-04-16T01:53:28.587Z,92480.00
2023-04-16T01:54:28.558Z,92476.00
2023-04-16T01:55:28.541Z,92480.00
2023-04-16T01:56:28.515Z,92476.00
2023-04-16T01:57:28.483Z,92480.00
2023-04-16T01:58:28.463Z,92482.00
2023-04-16T01:59:28.444Z,92482.00
2023-04-16T02:00:28.417Z,92480.00
2023-04-16T02:01:28.412Z,92480.00
2023-04-16T02:02:28.542Z,92478.00
2023-04-16T02:03:28.437Z,92480.00
2023-04-16T02:04:28.322Z,92480.00
2023-04-16T02:05:28.369Z,92482.00
2023-04-16T02:06:28.274Z,92480.00
2023-04-16T02:07:28.247Z,92480.00
2023-04-16T02:08:28.235Z,92482.00
2023-04-16T02:09:28.201Z,92486.00
2023-04-16T02:10:28.167Z,92486.00
2023-04-16T02:11:28.139Z,92486.00
2023-04-16T02:12:28.131Z,92488.00
2023-04-16T02:13:28.118Z,92488.00
2023-04-16T02:14:28.063Z,92490.00
2023-04-16T02:15:28.029Z,92490.00
2023-04-16T02:16:28.102Z,92488.00
2023-04-16T02:17:27.981Z,92486.00
2023-04-16T02:18:28.136Z,92488.00
2023-04-16T02:19:27.914Z,92490.00
2023-04-16T02:20:27.887Z,92492.00
2023-04-16T02:21:27.863Z,92490.00
2023-04-16T02:22:27.838Z,92492.00
2023-04-16T02:23:27.820Z,92496.00
2023-04-16T02:24:27.861Z,92496.00
2023-04-16T02:25:27.793Z,92500.00
2023-04-16T02:26:27.752Z,92500.00
2023-04-16T02:27:27.728Z,92502.00
2023-04-16T02:28:27.713Z,92500.00
2023-04-16T02:29:27.684Z,92503.00
2023-04-16T02:30:27.652Z,92503.00
2023-04-16T02:31:27.746Z,92503.00
2023-04-16T02:32:27.718Z,92503.00
2023-04-16T02:33:27.576Z,92502.00
2023-04-16T02:34:27.551Z,92503.00
2023-04-16T02:35:27.530Z,92507.00
2023-04-16T02:36:27.498Z,92507.00
2023-04-16T02:37:27.464Z,92505.00
2023-04-16T02:38:27.628Z,92507.00
2023-04-16T02:39:27.424Z,92509.00
2023-04-16T02:40:27.416Z,92507.00
2023-04-16T02:41:27.366Z,92505.00
2023-04-16T02:42:27.466Z,92505.00
2023-04-16T02:43:27.320Z,92507.00
2023-04-16T02:44:28.126Z,92509.00
2023-04-16T02:45:27.266Z,92509.00
2023-04-16T02:46:27.301Z,92509.00
2023-04-16T02:47:27.241Z,92509.00
2023-04-16T02:48:27.213Z,92511.00
2023-04-16T02:49:27.196Z,92513.00
2023-04-16T02:50:27.177Z,92511.00
2023-04-16T02:51:27.150Z,92515.00
2023-04-16T02:52:28.124Z,92517.00
2023-04-16T02:53:27.130Z,92515.00
2023-04-16T02:54:27.123Z,92515.00
2023-04-16T02:55:27.095Z,92517.00
2023-04-16T02:56:27.084Z,92519.00
2023-04-16T02:57:27.632Z,92517.00
2023-04-16T02:58:27.056Z,92513.00
2023-04-16T02:59:27.040Z,92515.00
2023-04-16T03:00:27.106Z,92513.00
2023-04-16T03:01:27.059Z,92513.00
2023-04-16T03:02:27.069Z,92513.00
2023-04-16T03:03:27.092Z,92515.00
2023-04-16T03:04:27.028Z,92515.00
2023-04-16T03:05:27.030Z,92511.00
2023-04-16T03:06:26.924Z,92513.00
2023-04-16T03:07:26.918Z,92511.00
2023-04-16T03:08:26.902Z,92513.00
2023-04-16T03:09:26.888Z,92515.00
2023-04-16T03:10:26.886Z,92517.00
2023-04-16T03:11:26.862Z,92517.00
2023-04-16T03:12:26.865Z,92519.00
2023-04-16T03:13:26.857Z,92515.00
2023-04-16T03:14:26.832Z,92515.00
2023-04-16T03:15:26.837Z,92515.00
2023-04-16T03:16:26.823Z,92515.00
2023-04-16T03:17:26.869Z,92519.00
2023-04-16T03:18:26.792Z,92519.00
2023-04-16T03:19:26.797Z,92517.00
2023-04-16T03:20:26.815Z,92521.00
2023-04-16T03:21:26.758Z,92519.00
2023-04-16T03:22:26.746Z,92521.00
2023-04-16T03:23:26.734Z,92523.00
2023-04-16T03:24:26.723Z,92523.00
2023-04-16T03:25:26.703Z,92523.00
2023-04-16T03:26:26.696Z,92527.00
2023-04-16T03:27:26.680Z,92525.00
2023-04-16T03:28:26.670Z,92525.00
2023-04-16T03:29:26.661Z,92529.00
2023-04-16T03:30:26.647Z,92529.00
2023-04-16T03:31:26.664Z,92531.00
2023-04-16T03:32:26.663Z,92535.00
2023-04-16T03:33:26.617Z,92537.00
2023-04-16T03:34:26.608Z,92537.00
2023-04-16T03:35:26.583Z,92535.00
2023-04-16T03:36:26.565Z,92535.00
2023-04-16T03:37:26.564Z,92531.00
2023-04-16T03:38:26.602Z,92529.00
2023-04-16T03:39:26.542Z,92531.00
2023-04-16T03:40:27.124Z,92533.00
2023-04-16T03:41:26.501Z,92537.00
2023-04-16T03:42:26.485Z,92535.00
2023-04-16T03:43:26.543Z,92537.00
2023-04-16T03:44:26.576Z,92537.00
2023-04-16T03:45:26.447Z,92535.00
2023-04-16T03:46:26.439Z,92537.00
2023-04-16T03:47:26.464Z,92537.00
2023-04-16T03:48:26.413Z,92539.00
2023-04-16T03:49:26.517Z,92541.00
2023-04-16T03:50:26.372Z,92541.00
2023-04-16T03:51:26.431Z,92541.00
2023-04-16T03:52:26.344Z,92543.00
2023-04-16T03:53:26.342Z,92541.00
2023-04-16T03:54:26.326Z,92545.00
2023-04-16T03:55:26.320Z,92543.00
2023-04-16T03:56:26.327Z,92541.00
2023-04-16T03:57:26.310Z,92541.00
2023-04-16T03:58:26.300Z,92541.00
2023-04-16T03:59:26.291Z,92541.00
2023-04-16T04:00:26.285Z,92541.00
2023-04-16T04:01:26.261Z,92541.00
2023-04-16T04:02:27.329Z,92541.00
2023-04-16T04:03:26.524Z,92545.00
2023-04-16T04:04:26.347Z,92545.00
2023-04-16T04:05:26.226Z,92545.00
2023-04-16T04:06:26.202Z,92545.00
2023-04-16T04:07:26.189Z,92547.00
2023-04-16T04:08:26.211Z,92549.00
2023-04-16T04:09:26.171Z,92549.00
2023-04-16T04:10:26.155Z,92551.00
2023-04-16T04:11:26.132Z,92553.00
2023-04-16T04:12:26.132Z,92551.00
2023-04-16T04:13:26.129Z,92551.00
2023-04-16T04:14:26.098Z,92551.00
2023-04-16T04:15:26.152Z,92551.00
2023-04-16T04:16:26.122Z,92553.00
2023-04-16T04:17:26.087Z,92553.00
2023-04-16T04:18:26.077Z,92553.00
2023-04-16T04:19:26.069Z,92553.00
2023-04-16T04:20:26.060Z,92557.00
2023-04-16T04:21:26.058Z,92557.00
2023-04-16T04:22:26.041Z,92557.00
2023-04-16T04:23:26.025Z,92557.00
2023-04-16T04:24:26.029Z,92557.00
2023-04-16T04:25:26.011Z,92558.00
2023-04-16T04:26:26.056Z,92560.00
2023-04-16T04:27:25.989Z,92564.00
2023-04-16T04:28:25.999Z,92564.00
2023-04-16T04:29:25.984Z,92566.00
2023-04-16T04:30:25.966Z,92566.00
2023-04-16T04:31:25.993Z,92564.00
2023-04-16T04:32:26.049Z,92564.00
2023-04-16T04:33:25.950Z,92566.00
2023-04-16T04:34:25.933Z,92562.00
2023-04-16T04:35:25.934Z,92564.00
2023-04-16T04:36:25.932Z,92564.00
2023-04-16T04:37:25.911Z,92566.00
2023-04-16T04:38:25.900Z,92570.00
2023-04-16T04:39:25.891Z,92570.00
2023-04-16T04:40:25.894Z,92572.00
2023-04-16T04:41:25.879Z,92574.00
2023-04-16T04:42:25.874Z,92574.00
2023-04-16T04:43:25.859Z,92576.00
2023-04-16T04:44:25.848Z,92574.00
2023-04-16T04:45:25.882Z,92574.00
2023-04-16T04:46:25.866Z,92578.00
2023-04-16T04:47:25.874Z,92578.00
2023-04-16T04:48:25.822Z,92576.00
2023-04-16T04:49:25.831Z,92578.00
2023-04-16T04:50:25.807Z,92580.00
2023-04-16T04:51:26.621Z,92580.00
2023-04-16T04:52:25.784Z,92588.00
2023-04-16T04:53:25.782Z,92590.00
2023-04-16T04:54:25.774Z,92592.00
2023-04-16T04:55:25.765Z,92590.00
2023-04-16T04:56:25.750Z,92592.00
2023-04-16T04:57:25.747Z,92592.00
2023-04-16T04:58:25.858Z,92592.00
2023-04-16T04:59:25.756Z,92595.00
2023-04-16T05:00:25.719Z,92594.00
2023-04-16T05:01:25.784Z,92595.00
2023-04-16T05:02:25.828Z,92597.00
2023-04-16T05:03:25.740Z,92597.00
2023-04-16T05:04:25.682Z,92595.00
2023-04-16T05:05:25.699Z,92597.00
2023-04-16T05:06:26.789Z,92594.00
2023-04-16T05:07:25.652Z,92597.00
2023-04-16T05:08:25.644Z,92595.00
2023-04-16T05:09:25.658Z,92597.00
2023-04-16T05:10:25.625Z,92597.00
2023-04-16T05:11:25.609Z,92599.00
2023-04-16T05:12:25.602Z,92599.00
2023-04-16T05:13:25.592Z,92599.00
2023-04-16T05:14:25.579Z,92597.00
2023-04-16T05:15:25.564Z,92599.00
2023-04-16T05:16:25.569Z,92597.00
2023-04-16T05:17:25.552Z,92601.00
2023-04-16T05:18:25.534Z,92605.00
2023-04-16T05:19:25.526Z,92607.00
2023-04-16T05:20:25.509Z,92613.00
2023-04-16T05:21:25.497Z,92613.00
2023-04-16T05:22:25.489Z,92615.00
2023-04-16T05:23:25.477Z,92615.00
2023-04-16T05:24:25.475Z,92613.00
2023-04-16T05:25:25.461Z,92615.00
2023-04-16T05:26:25.520Z,92613.00
2023-04-16T05:27:25.433Z,92615.00
2023-04-16T05:28:25.442Z,92611.00
2023-04-16T05:29:25.418Z,92611.00
2023-04-16T05:30:25.389Z,92611.00
2023-04-16T05:31:25.466Z,92611.00
2023-04-16T05:32:25.422Z,92611.00
2023-04-16T05:33:25.369Z,92611.00
2023-04-16T05:34:25.366Z,92613.00
2023-04-16T05:35:25.348Z,92613.00
2023-04-16T05:36:25.345Z,92613.00
2023-04-16T05:37:25.335Z,92615.00
2023-04-16T05:38:25.319Z,92613.00
2023-04-16T05:39:25.310Z,92611.00
2023-04-16T05:40:25.312Z,92611.00
2023-04-16T05:41:25.288Z,92611.00
2023-04-16T05:42:25.281Z,92613.00
2023-04-16T05:43:25.263Z,92611.00
2023-04-16T05:44:25.253Z,92613.00
2023-04-16T05:45:27.451Z,92615.00
2023-04-16T05:46:25.239Z,92615.00
2023-04-16T05:47:25.229Z,92617.00
2023-04-16T05:48:25.166Z,92617.00
2023-04-16T05:49:25.158Z,92617.00
2023-04-16T05:50:25.130Z,92619.00
2023-04-16T05:51:25.155Z,92619.00
2023-04-16T05:52:25.062Z,92621.00
2023-04-16T05:53:25.046Z,92623.00
2023-04-16T05:54:25.010Z,92623.00
2023-04-16T05:55:24.989Z,92621.00
2023-04-16T05:56:24.977Z,92621.00
2023-04-16T05:57:24.950Z,92625.00
2023-04-16T05:58:24.920Z,92625.00
2023-04-16T05:59:24.891Z,92625.00
2023-04-16T06:00:24.907Z,92627.00
2023-04-16T06:01:24.854Z,92629.00
2023-04-16T06:02:24.931Z,92633.00
2023-04-16T06:03:24.864Z,92631.00
2023-04-16T06:04:24.773Z,92631.00
2023-04-16T06:05:24.818Z,92633.00
2023-04-16T06:06:24.737Z,92633.00
2023-04-16T06:07:24.731Z,92635.00
2023-04-16T06:08:24.716Z,92633.00
2023-04-16T06:09:24.681Z,92637.00
2023-04-16T06:10:24.659Z,92637.00
2023-04-16T06:11:24.640Z,92637.00
2023-04-16T06:12:24.688Z,92639.00
2023-04-16T06:13:24.581Z,92639.00
2023-04-16T06:14:24.564Z,92641.00
2023-04-16T06:15:24.528Z,92639.00
2023-04-16T06:16:24.546Z,92642.00
2023-04-16T06:17:24.537Z,92641.00
2023-04-16T06:18:24.472Z,92644.00
2023-04-16T06:19:24.449Z,92641.00
2023-04-16T06:20:24.416Z,92642.00
2023-04-16T06:21:24.402Z,92642.00
2023-04-16T06:22:24.380Z,92642.00
2023-04-16T06:23:24.360Z,92639.00
2023-04-16T06:24:24.336Z,92641.00
2023-04-16T06:25:24.324Z,92641.00
2023-04-16T06:26:24.309Z,92637.00
2023-04-16T06:27:24.298Z,92637.00
2023-04-16T06:28:24.296Z,92637.00
2023-04-16T06:29:36.877Z,92637.00
2023-04-16T06:30:25.246Z,92637.00
2023-04-16T06:31:24.280Z,92639.00
2023-04-16T06:32:24.276Z,92639.00
2023-04-16T06:33:24.192Z,92639.00
2023-04-16T06:34:24.224Z,92639.00
2023-04-16T06:35:24.154Z,92641.00
2023-04-16T06:36:24.141Z,92641.00
2023-04-16T06:37:24.112Z,92641.00
2023-04-16T06:38:24.108Z,92642.00
2023-04-16T06:39:24.082Z,92644.00
2023-04-16T06:40:24.064Z,92642.00
2023-04-16T06:41:24.054Z,92642.00
2023-04-16T06:42:24.050Z,92644.00
2023-04-16T06:43:24.026Z,92644.00
2023-04-16T06:44:24.004Z,92644.00
2023-04-16T06:45:23.992Z,92646.00
2023-04-16T06:46:24.018Z,92646.00
2023-04-16T06:47:24.052Z,92648.00
2023-04-16T06:48:23.980Z,92648.00
2023-04-16T06:49:23.893Z,92648.00
2023-04-16T06:50:23.932Z,92648.00
2023-04-16T06:51:23.862Z,92646.00
2023-04-16T06:52:23.838Z,92646.00
2023-04-16T06:53:23.831Z,92646.00
2023-04-16T06:54:24.620Z,92648.00
2023-04-16T06:55:23.778Z,92646.00
2023-04-16T06:56:23.748Z,92648.00
2023-04-16T06:57:24.622Z,92650.00
2023-04-16T06:58:23.707Z,92652.00
2023-04-16T06:59:23.694Z,92652.00
2023-04-16T07:00:23.679Z,92654.00
2023-04-16T07:01:23.704Z,92652.00
2023-04-16T07:02:23.796Z,92652.00
2023-04-16T07:03:23.810Z,92652.00
2023-04-16T07:04:23.701Z,92650.00
2023-04-16T07:05:23.621Z,92650.00
2023-04-16T07:06:23.612Z,92652.00
2023-04-16T07:07:23.617Z,92650.00
2023-04-16T07:08:23.610Z,92652.00
2023-04-16T07:09:23.616Z,92652.00
2023-04-16T07:10:23.606Z,92654.00
2023-04-16T07:11:23.594Z,92654.00
2023-04-16T07:12:23.613Z,92656.00
2023-04-16T07:13:23.580Z,92654.00
2023-04-16T07:14:23.570Z,92654.00
2023-04-16T07:15:23.560Z,92652.00
2023-04-16T07:16:23.579Z,92652.00
2023-04-16T07:17:23.541Z,92656.00
2023-04-16T07:18:23.534Z,92656.00
2023-04-16T07:19:23.532Z,92658.00
2023-04-16T07:20:23.529Z,92658.00
2023-04-16T07:21:23.529Z,92656.00
2023-04-16T07:22:23.531Z,92658.00
2023-04-16T07:23:23.518Z,92656.00
2023-04-16T07:24:23.513Z,92658.00
2023-04-16T07:25:23.493Z,92654.00
2023-04-16T07:26:23.490Z,92658.00
2023-04-16T07:27:23.486Z,92658.00
2023-04-16T07:28:23.478Z,92658.00
2023-04-16T07:29:23.478Z,92660.00
2023-04-16T07:30:23.469Z,92658.00
2023-04-16T07:31:23.485Z,92662.00
2023-04-16T07:32:23.607Z,92664.00
2023-04-16T07:33:23.429Z,92664.00
2023-04-16T07:34:23.464Z,92668.00
2023-04-16T07:35:23.417Z,92668.00
2023-04-16T07:36:23.398Z,92672.00
2023-04-16T07:37:23.391Z,92672.00
2023-04-16T07:38:23.386Z,92670.00
2023-04-16T07:39:23.361Z,92672.00
2023-04-16T07:40:23.357Z,92674.00
2023-04-16T07:41:23.346Z,92672.00
2023-04-16T07:42:23.328Z,92674.00
2023-04-16T07:43:23.315Z,92674.00
2023-04-16T07:44:23.295Z,92678.00
2023-04-16T07:45:23.290Z,92676.00
2023-04-16T07:46:24.745Z,92676.00
2023-04-16T07:47:23.335Z,92676.00
2023-04-16T07:48:23.243Z,92678.00
2023-04-16T07:49:23.358Z,92678.00
2023-04-16T07:50:23.248Z,92678.00
2023-04-16T07:51:23.183Z,92676.00
2023-04-16T07:52:23.188Z,92678.00
2023-04-16T07:53:23.166Z,92676.00
2023-04-16T07:54:23.159Z,92676.00
2023-04-16T07:55:23.144Z,92680.00
2023-04-16T07:56:23.140Z,92684.00
2023-04-16T07:57:23.143Z,92682.00
2023-04-16T07:58:23.142Z,92688.00
2023-04-16T07:59:24.363Z,92688.00
2023-04-16T08:00:23.147Z,92686.00
2023-04-16T08:01:23.061Z,92686.00
2023-04-16T08:02:23.196Z,92688.00
2023-04-16T08:03:23.288Z,92688.00
2023-04-16T08:04:23.468Z,92686.00
2023-04-16T08:05:23.156Z,92688.00
2023-04-16T08:06:23.004Z,92688.00
2023-04-16T08:07:22.996Z,92688.00
2023-04-16T08:08:22.976Z,92688.00
2023-04-16T08:09:22.964Z,92688.00
2023-04-16T08:10:22.985Z,92689.00
2023-04-16T08:11:22.947Z,92693.00
2023-04-16T08:12:22.929Z,92693.00
2023-04-16T08:13:22.922Z,92693.00
2023-04-16T08:14:22.985Z,92695.00
2023-04-16T08:15:22.906Z,92697.00
2023-04-16T08:16:22.968Z,92697.00
2023-04-16T08:17:22.910Z,92699.00
2023-04-16T08:18:22.875Z,92699.00
2023-04-16T08:19:22.946Z,92699.00
2023-04-16T08:20:22.884Z,92699.00
2023-04-16T08:21:22.838Z,92699.00
2023-04-16T08:22:22.834Z,92699.00
2023-04-16T08:23:22.835Z,92701.00
2023-04-16T08:24:22.817Z,92701.00
2023-04-16T08:25:22.826Z,92705.00
2023-04-16T08:26:22.813Z,92701.00
2023-04-16T08:27:22.803Z,92699.00
2023-04-16T08:28:22.791Z,92701.00
2023-04-16T08:29:22.783Z,92703.00
2023-04-16T08:30:22.807Z,92703.00
2023-04-16T08:31:22.769Z,92707.00
2023-04-16T08:32:22.818Z,92705.00
2023-04-16T08:33:22.734Z,92707.00
2023-04-16T08:34:22.698Z,92707.00
2023-04-16T08:35:22.689Z,92709.00
2023-04-16T08:36:22.669Z,92711.00
2023-04-16T08:37:22.657Z,92713.00
2023-04-16T08:38:22.654Z,92709.00
2023-04-16T08:39:22.642Z,92709.00
2023-04-16T08:40:22.622Z,92709.00
2023-04-16T08:41:22.612Z,92711.00
2023-04-16T08:42:22.593Z,92709.00
2023-04-16T08:43:22.580Z,92709.00
2023-04-16T08:44:22.583Z,92709.00
2023-04-16T08:45:22.536Z,92709.00
2023-04-16T08:46:22.589Z,92711.00
2023-04-16T08:47:23.132Z,92711.00
2023-04-16T08:48:22.617Z,92715.00
2023-04-16T08:49:22.489Z,92713.00
2023-04-16T08:50:22.470Z,92711.00
2023-04-16T08:51:22.482Z,92711.00
2023-04-16T08:52:22.461Z,92709.00
2023-04-16T08:53:22.441Z,92709.00
2023-04-16T08:54:22.408Z,92707.00
2023-04-16T08:55:22.401Z,92709.00
2023-04-16T08:56:22.397Z,92709.00
2023-04-16T08:57:22.380Z,92709.00
2023-04-16T08:58:22.396Z,92711.00
2023-04-16T08:59:22.341Z,92709.00
2023-04-16T09:00:22.328Z,92713.00
2023-04-16T09:01:22.446Z,92709.00
2023-04-16T09:02:22.402Z,92715.00
2023-04-16T09:03:22.486Z,92711.00
2023-04-16T09:04:22.322Z,92715.00
2023-04-16T09:05:22.261Z,92717.00
2023-04-16T09:06:22.276Z,92715.00
2023-04-16T09:07:22.238Z,92717.00
2023-04-16T09:08:22.234Z,92717.00
2023-04-16T09:09:22.215Z,92717.00
2023-04-16T09:10:22.199Z,92717.00
2023-04-16T09:11:22.182Z,92717.00
2023-04-16T09:12:22.169Z,92717.00
2023-04-16T09:13:22.162Z,92719.00
2023-04-16T09:14:22.138Z,92717.00
2023-04-16T09:15:22.134Z,92721.00
2023-04-16T09:16:22.166Z,92721.00
2023-04-16T09:17:22.154Z,92721.00
2023-04-16T09:18:22.086Z,92723.00
2023-04-16T09:19:22.059Z,92721.00
2023-04-16T09:20:22.052Z,92721.00
2023-04-16T09:21:23.892Z,92721.00
2023-04-16T09:22:22.023Z,92721.00
2023-04-16T09:23:22.018Z,92719.00
2023-04-16T09:24:21.999Z,92721.00
2023-04-16T09:25:21.998Z,92721.00
2023-04-16T09:26:21.976Z,92721.00
2023-04-16T09:27:22.950Z,92725.00
2023-04-16T09:28:21.944Z,92725.00
2023-04-16T09:29:21.921Z,92723.00
2023-04-16T09:30:21.973Z,92727.00
2023-04-16T09:31:21.930Z,92725.00
2023-04-16T09:32:22.639Z,92727.00
2023-04-16T09:33:21.866Z,92729.00
2023-04-16T09:34:21.851Z,92729.00
2023-04-16T09:35:21.860Z,92725.00
2023-04-16T09:36:21.826Z,92727.00
2023-04-16T09:37:21.819Z,92733.00
2023-04-16T09:38:21.811Z,92731.00
2023-04-16T09:39:21.798Z,92733.00
2023-04-16T09:40:21.864Z,92735.00
2023-04-16T09:41:21.829Z,92733.00
2023-04-16T09:42:21.757Z,92731.00
2023-04-16T09:43:21.745Z,92733.00
2023-04-16T09:44:21.720Z,92729.00
2023-04-16T09:45:21.708Z,92731.00
2023-04-16T09:46:22.757Z,92729.00
2023-04-16T09:47:21.703Z,92731.00
2023-04-16T09:48:21.669Z,92727.00
2023-04-16T09:49:21.655Z,92727.00
2023-04-16T09:50:21.645Z,92727.00
2023-04-16T09:51:21.634Z,92729.00
2023-04-16T09:52:22.135Z,92729.00
2023-04-16T09:53:21.604Z,92729.00
2023-04-16T09:54:21.586Z,92727.00
2023-04-16T09:55:21.598Z,92729.00
2023-04-16T09:56:22.110Z,92733.00
2023-04-16T09:57:21.531Z,92729.00
2023-04-16T09:58:21.528Z,92731.00
2023-04-16T09:59:21.547Z,92731.00
2023-04-16T10:00:21.494Z,92731.00
2023-04-16T10:01:21.495Z,92733.00
2023-04-16T10:02:21.499Z,92733.00
2023-04-16T10:03:21.516Z,92733.00
2023-04-16T10:04:21.488Z,92733.00
2023-04-16T10:05:21.421Z,92733.00
2023-04-16T10:06:21.391Z,92733.00
2023-04-16T10:07:21.457Z,92731.00
2023-04-16T10:08:21.366Z,92733.00
2023-04-16T10:09:21.421Z,92731.00
2023-04-16T10:10:21.343Z,92733.00
2023-04-16T10:11:21.353Z,92731.00
2023-04-16T10:12:21.308Z,92733.00
2023-04-16T10:13:21.275Z,92729.00
2023-04-16T10:14:22.117Z,92731.00
2023-04-16T10:15:21.254Z,92733.00
2023-04-16T10:16:21.262Z,92729.00
2023-04-16T10:17:21.306Z,92729.00
2023-04-16T10:18:21.228Z,92731.00
2023-04-16T10:19:21.194Z,92729.00
2023-04-16T10:20:21.191Z,92729.00
2023-04-16T10:21:21.162Z,92731.00
2023-04-16T10:22:21.150Z,92729.00
2023-04-16T10:23:21.125Z,92733.00
2023-04-16T10:24:21.118Z,92735.00
2023-04-16T10:25:21.111Z,92733.00
2023-04-16T10:26:21.163Z,92733.00
2023-04-16T10:27:21.104Z,92733.00
2023-04-16T10:28:21.044Z,92733.00
2023-04-16T10:29:21.002Z,92733.00
2023-04-16T10:30:21.020Z,92731.00
2023-04-16T10:31:21.074Z,92731.00
2023-04-16T10:32:20.995Z,92733.00
2023-04-16T10:33:20.958Z,92731.00
2023-04-16T10:34:20.936Z,92735.00
2023-04-16T10:35:20.938Z,92731.00
2023-04-16T10:36:20.904Z,92731.00
2023-04-16T10:37:20.892Z,92729.00
2023-04-16T10:38:20.864Z,92729.00
2023-04-16T10:39:20.845Z,92729.00
2023-04-16T10:40:20.822Z,92727.00
2023-04-16T10:41:20.854Z,92729.00
2023-04-16T10:42:20.776Z,92729.00
2023-04-16T10:43:20.777Z,92727.00
2023-04-16T10:44:20.758Z,92727.00
2023-04-16T10:45:20.810Z,92729.00
2023-04-16T10:46:20.775Z,92725.00
2023-04-16T10:47:20.742Z,92727.00
2023-04-16T10:48:20.681Z,92725.00
2023-04-16T10:49:20.665Z,92725.00
2023-04-16T10:50:20.632Z,92727.00
2023-04-16T10:51:20.625Z,92723.00
2023-04-16T10:52:20.611Z,92723.00
2023-04-16T10:53:20.592Z,92721.00
2023-04-16T10:54:20.564Z,92721.00
2023-04-16T10:55:20.546Z,92723.00
2023-04-16T10:56:20.533Z,92721.00
2023-04-16T10:57:20.546Z,92719.00
2023-04-16T10:58:20.486Z,92721.00
2023-04-16T10:59:20.506Z,92723.00
2023-04-16T11:00:20.436Z,92717.00
2023-04-16T11:01:20.434Z,92717.00
2023-04-16T11:02:20.644Z,92715.00
2023-04-16T11:03:20.489Z,92717.00
2023-04-16T11:04:20.406Z,92713.00
2023-04-16T11:05:20.321Z,92715.00
2023-04-16T11:06:20.309Z,92715.00
2023-04-16T11:07:20.302Z,92713.00
2023-04-16T11:08:20.271Z,92715.00
2023-04-16T11:09:20.326Z,92713.00
2023-04-16T11:10:20.234Z,92715.00
2023-04-16T11:11:20.214Z,92715.00
2023-04-16T11:12:20.210Z,92711.00
2023-04-16T11:13:20.187Z,92715.00
2023-04-16T11:14:20.155Z,92715.00
2023-04-16T11:15:20.136Z,92711.00
2023-04-16T11:16:20.238Z,92715.00
2023-04-16T11:17:20.200Z,92713.00
2023-04-16T11:18:20.087Z,92711.00
2023-04-16T11:19:20.049Z,92711.00
2023-04-16T11:20:21.123Z,92709.00
2023-04-16T11:21:20.014Z,92709.00
2023-04-16T11:22:19.987Z,92713.00
2023-04-16T11:23:20.116Z,92709.00
2023-04-16T11:24:19.949Z,92713.00
2023-04-16T11:25:19.944Z,92707.00
2023-04-16T11:26:19.914Z,92711.00
2023-04-16T11:27:19.900Z,92709.00
2023-04-16T11:28:19.889Z,92707.00
2023-04-16T11:29:19.877Z,92711.00
2023-04-16T11:30:19.859Z,92711.00
2023-04-16T11:31:19.921Z,92711.00
2023-04-16T11:32:19.885Z,92713.00
2023-04-16T11:33:19.833Z,92709.00
2023-04-16T11:34:19.815Z,92709.00
2023-04-16T11:35:19.792Z,92709.00
2023-04-16T11:36:19.781Z,92711.00
2023-04-16T11:37:19.767Z,92711.00
2023-04-16T11:38:19.782Z,92711.00
2023-04-16T11:39:19.765Z,92715.00
2023-04-16T11:40:19.727Z,92715.00
2023-04-16T11:41:19.713Z,92713.00
2023-04-16T11:42:19.727Z,92711.00
2023-04-16T11:43:19.683Z,92715.00
2023-04-16T11:44:19.679Z,92711.00